createdAt,value
2017-04-27T03:00:36.751Z,18.97
2017-04-27T03:01:02.406Z,19.02
2017-04-27T03:01:27.968Z,19.05
2017-04-27T03:01:53.662Z,19.06
2017-04-27T03:02:19.289Z,18.97
2017-04-27T03:02:44.850Z,19.01
2017-04-27T03:03:10.531Z,19.02
2017-04-27T03:03:36.090Z,19.05
2017-04-27T03:04:01.640Z,18.99
2017-04-27T03:04:27.189Z,19.01
2017-04-27T03:04:52.724Z,19.01
2017-04-27T03:05:18.319Z,18.99
2017-04-27T03:05:43.857Z,18.99
2017-04-27T03:06:09.394Z,19.01
2017-04-27T03:06:34.960Z,19.01
2017-04-27T03:07:00.560Z,19.01
2017-04-27T03:07:26.112Z,18.9
2017-04-27T03:07:51.672Z,19.02
2017-04-27T03:08:17.243Z,18.95
2017-04-27T03:08:42.799Z,19.05
2017-04-27T03:09:08.476Z,18.99
2017-04-27T03:09:34.032Z,19.02
2017-04-27T03:09:59.591Z,18.99
2017-04-27T03:10:25.150Z,18.94
2017-04-27T03:10:50.792Z,18.98
2017-04-27T03:11:16.369Z,18.99
2017-04-27T03:11:41.922Z,18.95
2017-04-27T03:12:07.518Z,18.94
2017-04-27T03:12:33.087Z,18.99
2017-04-27T03:12:58.641Z,19.01
2017-04-27T03:13:24.203Z,18.92
2017-04-27T03:13:49.766Z,19.01
2017-04-27T03:14:15.352Z,18.98
2017-04-27T03:14:40.923Z,18.94
2017-04-27T03:15:06.523Z,19.02
2017-04-27T03:16:10.068Z,19.01
2017-04-27T03:16:35.651Z,18.94
2017-04-27T03:17:01.221Z,18.99
2017-04-27T03:17:26.832Z,18.99
2017-04-27T03:17:52.390Z,19.02
2017-04-27T03:18:17.940Z,18.99
2017-04-27T03:18:43.504Z,19.01
2017-04-27T03:19:09.039Z,18.97
2017-04-27T03:19:34.590Z,18.95
2017-04-27T03:20:00.150Z,19.01
2017-04-27T03:20:25.813Z,18.99
2017-04-27T03:20:51.421Z,18.94
2017-04-27T03:21:16.973Z,18.91
2017-04-27T03:21:42.663Z,18.92
2017-04-27T03:22:08.221Z,18.97
2017-04-27T03:22:33.791Z,18.92
2017-04-27T03:22:59.339Z,18.99
2017-04-27T03:23:24.877Z,18.95
2017-04-27T03:23:50.463Z,18.97
2017-04-27T03:24:15.983Z,18.97
2017-04-27T03:24:41.591Z,18.91
2017-04-27T03:25:07.141Z,18.92
2017-04-27T03:25:32.703Z,18.91
2017-04-27T03:25:58.293Z,18.9
2017-04-27T03:26:23.840Z,18.98
2017-04-27T03:26:49.401Z,18.94
2017-04-27T03:27:14.965Z,18.95
2017-04-27T03:27:40.537Z,18.99
2017-04-27T03:28:06.111Z,18.98
2017-04-27T03:28:31.703Z,18.87
2017-04-27T03:28:57.260Z,18.97
2017-04-27T03:29:22.974Z,18.9
2017-04-27T03:29:48.514Z,18.94
2017-04-27T03:30:14.064Z,18.97
2017-04-27T03:30:39.612Z,18.97
2017-04-27T03:31:05.156Z,18.99
2017-04-27T03:31:30.699Z,18.92
2017-04-27T03:31:56.258Z,18.9
2017-04-27T03:32:21.812Z,18.95
2017-04-27T03:32:47.360Z,18.95
2017-04-27T03:33:13.134Z,18.95
2017-04-27T03:33:38.713Z,18.98
2017-04-27T03:34:04.269Z,18.98
2017-04-27T03:34:29.929Z,18.99
2017-04-27T03:34:55.539Z,18.94
2017-04-27T03:35:21.117Z,18.92
2017-04-27T03:35:46.653Z,18.94
2017-04-27T03:36:12.228Z,18.95
2017-04-27T03:36:37.799Z,18.94
2017-04-27T03:37:03.359Z,18.97
2017-04-27T03:37:28.900Z,18.94
2017-04-27T03:37:54.470Z,18.94
2017-04-27T03:38:20.146Z,18.95
2017-04-27T03:38:45.680Z,18.95
2017-04-27T03:39:11.227Z,18.91
2017-04-27T03:39:36.763Z,18.86
2017-04-27T03:40:02.312Z,18.9
2017-04-27T03:40:27.891Z,18.94
2017-04-27T03:40:53.505Z,18.91
2017-04-27T03:41:19.084Z,18.9
2017-04-27T03:41:44.652Z,18.97
2017-04-27T03:42:10.353Z,18.92
2017-04-27T03:42:35.910Z,18.94
2017-04-27T03:43:01.511Z,18.95
2017-04-27T03:43:27.082Z,18.91
2017-04-27T03:43:52.697Z,18.95
2017-04-27T03:44:18.264Z,18.87
2017-04-27T03:44:43.822Z,18.95
2017-04-27T03:45:09.411Z,18.91
2017-04-27T03:45:35.020Z,18.94
2017-04-27T03:46:00.589Z,18.95
2017-04-27T03:46:26.168Z,18.9
2017-04-27T03:46:51.730Z,18.97
2017-04-27T03:47:17.297Z,18.86
2017-04-27T03:47:42.859Z,18.9
2017-04-27T03:48:08.433Z,18.91
2017-04-27T03:48:33.997Z,18.92
2017-04-27T03:48:59.557Z,18.95
2017-04-27T03:49:25.111Z,18.9
2017-04-27T03:49:50.659Z,18.94
2017-04-27T03:50:16.232Z,18.94
2017-04-27T03:50:41.781Z,18.94
2017-04-27T03:51:07.411Z,18.9
2017-04-27T03:51:33.076Z,18.9
2017-04-27T03:51:58.644Z,18.95
2017-04-27T03:52:24.210Z,18.84
2017-04-27T03:52:49.786Z,18.86
2017-04-27T03:53:15.352Z,18.84
2017-04-27T03:53:41.055Z,18.84
2017-04-27T03:54:06.620Z,18.87
2017-04-27T03:54:32.191Z,18.83
2017-04-27T03:54:57.758Z,18.9
2017-04-27T03:55:23.475Z,18.87
2017-04-27T03:55:49.018Z,18.9
2017-04-27T03:56:14.590Z,18.83
2017-04-27T03:56:40.169Z,18.83
2017-04-27T03:57:05.724Z,18.79
2017-04-27T03:57:31.411Z,18.84
2017-04-27T03:57:57.041Z,18.87
2017-04-27T03:58:22.631Z,18.83
2017-04-27T03:58:48.191Z,18.79
2017-04-27T03:59:13.743Z,18.77
2017-04-27T03:59:39.324Z,18.8
2017-04-27T04:00:04.880Z,18.8
2017-04-27T04:00:30.435Z,18.84
2017-04-27T04:00:55.980Z,18.73
2017-04-27T04:01:21.529Z,18.76
2017-04-27T04:01:47.218Z,18.79
2017-04-27T04:02:12.751Z,18.77
2017-04-27T04:02:38.294Z,18.86
2017-04-27T04:03:03.833Z,18.77
2017-04-27T04:03:29.386Z,18.77
2017-04-27T04:03:54.924Z,18.8
2017-04-27T04:04:20.592Z,18.79
2017-04-27T04:04:46.159Z,18.74
2017-04-27T04:05:11.721Z,18.8
2017-04-27T04:05:37.292Z,18.8
2017-04-27T04:06:02.843Z,18.77
2017-04-27T04:06:28.408Z,18.82
2017-04-27T04:06:53.993Z,18.74
2017-04-27T04:07:19.560Z,18.8
2017-04-27T04:07:45.231Z,18.73
2017-04-27T04:08:10.810Z,18.8
2017-04-27T04:08:36.391Z,18.73
2017-04-27T04:09:01.963Z,18.77
2017-04-27T04:09:27.521Z,18.77
2017-04-27T04:09:53.083Z,18.8
2017-04-27T04:10:18.652Z,18.82
2017-04-27T04:10:44.211Z,18.76
2017-04-27T04:11:09.761Z,18.74
2017-04-27T04:11:35.321Z,18.77
2017-04-27T04:12:00.931Z,18.83
2017-04-27T04:12:27.283Z,18.82
2017-04-27T04:12:52.821Z,18.77
2017-04-27T04:13:18.473Z,18.76
2017-04-27T04:13:44.033Z,18.74
2017-04-27T04:14:09.646Z,18.84
2017-04-27T04:14:35.215Z,18.76
2017-04-27T04:15:00.873Z,18.74
2017-04-27T04:15:26.445Z,18.77
2017-04-27T04:15:52.059Z,18.74
2017-04-27T04:16:17.630Z,18.83
2017-04-27T04:16:43.169Z,18.76
2017-04-27T04:17:08.733Z,18.77
2017-04-27T04:17:34.293Z,18.76
2017-04-27T04:17:59.862Z,18.76
2017-04-27T04:18:25.467Z,18.73
2017-04-27T04:18:51.032Z,18.74
2017-04-27T04:19:16.599Z,18.76
2017-04-27T04:19:42.168Z,18.73
2017-04-27T04:20:07.734Z,18.76
2017-04-27T04:20:33.401Z,18.77
2017-04-27T04:20:58.870Z,18.73
2017-04-27T04:21:24.444Z,18.74
2017-04-27T04:21:49.994Z,18.74
2017-04-27T04:22:15.656Z,18.74
2017-04-27T04:22:41.197Z,18.77
2017-04-27T04:23:06.742Z,18.8
2017-04-27T04:23:32.399Z,18.74
2017-04-27T04:23:57.933Z,18.72
2017-04-27T04:24:23.470Z,18.79
2017-04-27T04:24:49.146Z,18.77
2017-04-27T04:25:14.787Z,18.77
2017-04-27T04:25:40.331Z,18.74
2017-04-27T04:26:05.939Z,18.74
2017-04-27T04:26:31.490Z,18.73
2017-04-27T04:26:57.030Z,18.77
2017-04-27T04:27:45.191Z,18.76
2017-04-27T04:28:33.014Z,18.72
2017-04-27T04:28:58.773Z,18.77
2017-04-27T04:29:24.353Z,18.68
2017-04-27T04:29:49.913Z,18.76
2017-04-27T04:30:15.513Z,18.73
2017-04-27T04:30:41.071Z,18.73
2017-04-27T04:31:06.646Z,18.74
2017-04-27T04:31:32.198Z,18.77
2017-04-27T04:31:57.801Z,18.76
2017-04-27T04:32:23.360Z,18.79
2017-04-27T04:32:48.914Z,18.77
2017-04-27T04:33:14.500Z,18.82
2017-04-27T04:33:40.075Z,18.74
2017-04-27T04:34:05.720Z,18.74
2017-04-27T04:34:31.282Z,18.76
2017-04-27T04:34:56.863Z,18.72
2017-04-27T04:35:22.419Z,18.8
2017-04-27T04:35:47.992Z,18.74
2017-04-27T04:36:13.552Z,18.82
2017-04-27T04:36:39.121Z,18.8
2017-04-27T04:37:04.696Z,18.77
2017-04-27T04:37:30.251Z,18.76
2017-04-27T04:37:55.877Z,18.76
2017-04-27T04:38:21.488Z,18.79
2017-04-27T04:38:47.043Z,18.73
2017-04-27T04:39:12.589Z,18.82
2017-04-27T04:39:38.153Z,18.74
2017-04-27T04:40:03.719Z,18.79
2017-04-27T04:40:29.443Z,18.72
2017-04-27T04:40:55.024Z,18.8
2017-04-27T04:41:20.587Z,18.79
2017-04-27T04:41:46.131Z,18.73
2017-04-27T04:42:11.694Z,18.74
2017-04-27T04:42:37.256Z,18.79
2017-04-27T04:43:02.821Z,18.73
2017-04-27T04:43:28.418Z,18.79
2017-04-27T04:43:53.984Z,18.79
2017-04-27T04:44:19.556Z,18.76
2017-04-27T04:44:45.155Z,18.82
2017-04-27T04:45:10.719Z,18.74
2017-04-27T04:45:36.265Z,18.73
2017-04-27T04:46:01.830Z,18.74
2017-04-27T04:46:27.387Z,18.77
2017-04-27T04:46:52.955Z,18.74
2017-04-27T04:47:18.525Z,18.73
2017-04-27T04:47:44.073Z,18.72
2017-04-27T04:48:09.644Z,18.82
2017-04-27T04:48:35.198Z,18.83
2017-04-27T04:49:00.760Z,18.79
2017-04-27T04:49:26.309Z,18.8
2017-04-27T04:49:51.853Z,18.77
2017-04-27T04:50:17.421Z,18.77
2017-04-27T04:50:42.989Z,18.72
2017-04-27T04:51:08.550Z,18.74
2017-04-27T04:51:34.116Z,18.74
2017-04-27T04:51:59.668Z,18.79
2017-04-27T04:52:25.302Z,18.79
2017-04-27T04:52:50.920Z,18.77
2017-04-27T04:53:16.493Z,18.77
2017-04-27T04:53:42.083Z,18.73
2017-04-27T04:54:45.675Z,18.79
2017-04-27T04:55:11.216Z,18.77
2017-04-27T04:55:36.843Z,18.79
2017-04-27T04:56:02.409Z,18.79
2017-04-27T04:56:28.031Z,18.74
2017-04-27T04:56:53.602Z,18.77
2017-04-27T04:57:19.172Z,18.76
2017-04-27T04:57:44.735Z,18.77
2017-04-27T04:58:10.294Z,18.77
2017-04-27T04:58:35.976Z,18.79
2017-04-27T04:59:01.556Z,18.72
2017-04-27T04:59:27.143Z,18.77
2017-04-27T04:59:52.719Z,18.79
2017-04-27T05:00:18.301Z,18.76
2017-04-27T05:00:43.948Z,18.79
2017-04-27T05:01:09.544Z,18.67
2017-04-27T05:01:35.099Z,18.79
2017-04-27T05:02:00.668Z,18.7
2017-04-27T05:02:26.358Z,18.7
2017-04-27T05:02:51.930Z,18.79
2017-04-27T05:03:17.485Z,18.68
2017-04-27T05:03:43.042Z,18.77
2017-04-27T05:04:08.607Z,18.74
2017-04-27T05:04:34.176Z,18.79
2017-04-27T05:04:59.731Z,18.73
2017-04-27T05:05:58.150Z,18.73
2017-04-27T05:06:23.718Z,18.76
2017-04-27T05:06:49.394Z,18.7
2017-04-27T05:07:14.964Z,18.68
2017-04-27T05:07:40.508Z,18.73
2017-04-27T05:08:06.274Z,18.7
2017-04-27T05:08:31.831Z,18.72
2017-04-27T05:08:57.397Z,18.76
2017-04-27T05:09:22.959Z,18.76
2017-04-27T05:09:48.516Z,18.74
2017-04-27T05:10:14.065Z,18.67
2017-04-27T05:10:39.620Z,18.68
2017-04-27T05:11:05.191Z,18.76
2017-04-27T05:11:30.760Z,18.7
2017-04-27T05:11:56.340Z,18.72
2017-04-27T05:12:21.982Z,18.72
2017-04-27T05:12:47.529Z,18.68
2017-04-27T05:13:13.222Z,18.74
2017-04-27T05:13:38.799Z,18.67
2017-04-27T05:14:04.362Z,18.7
2017-04-27T05:14:29.929Z,18.73
2017-04-27T05:14:55.609Z,18.74
2017-04-27T05:15:21.165Z,18.74
2017-04-27T05:15:46.712Z,18.72
2017-04-27T05:16:12.371Z,18.7
2017-04-27T05:16:37.930Z,18.7
2017-04-27T05:17:03.470Z,18.68
2017-04-27T05:17:29.078Z,18.73
2017-04-27T05:17:54.642Z,18.72
2017-04-27T05:18:20.204Z,18.72
2017-04-27T05:18:45.755Z,18.74
2017-04-27T05:19:11.309Z,18.73
2017-04-27T05:19:36.882Z,18.73
2017-04-27T05:20:02.614Z,18.73
2017-04-27T05:20:28.173Z,18.68
2017-04-27T05:20:53.734Z,18.65
2017-04-27T05:21:19.345Z,18.64
2017-04-27T05:21:44.989Z,18.73
2017-04-27T05:22:10.549Z,18.72
2017-04-27T05:22:36.172Z,18.73
2017-04-27T05:23:01.740Z,18.73
2017-04-27T05:23:27.293Z,18.7
2017-04-27T05:23:52.907Z,18.76
2017-04-27T05:24:18.481Z,18.72
2017-04-27T05:24:44.053Z,18.72
2017-04-27T05:25:09.611Z,18.73
2017-04-27T05:25:35.184Z,18.73
2017-04-27T05:26:00.765Z,18.7
2017-04-27T05:26:26.441Z,18.72
2017-04-27T05:26:52.021Z,18.73
2017-04-27T05:27:17.601Z,18.73
2017-04-27T05:27:43.138Z,18.72
2017-04-27T05:28:08.749Z,18.73
2017-04-27T05:28:34.319Z,18.72
2017-04-27T05:28:59.854Z,18.7
2017-04-27T05:29:25.401Z,18.67
2017-04-27T05:29:50.964Z,18.68
2017-04-27T05:30:16.555Z,18.73
2017-04-27T05:30:42.128Z,18.68
2017-04-27T05:31:07.701Z,18.68
2017-04-27T05:31:33.266Z,18.65
2017-04-27T05:31:58.931Z,18.76
2017-04-27T05:32:24.514Z,18.72
2017-04-27T05:32:50.088Z,18.72
2017-04-27T05:33:15.641Z,18.72
2017-04-27T05:33:41.210Z,18.7
2017-04-27T05:34:06.782Z,18.68
2017-04-27T05:34:32.350Z,18.7
2017-04-27T05:34:57.913Z,18.62
2017-04-27T05:35:23.534Z,18.7
2017-04-27T05:35:49.093Z,18.65
2017-04-27T05:36:14.681Z,18.73
2017-04-27T05:36:40.239Z,18.7
2017-04-27T05:37:05.792Z,18.72
2017-04-27T05:37:31.363Z,18.72
2017-04-27T05:37:56.932Z,18.68
2017-04-27T05:38:22.492Z,18.61
2017-04-27T05:38:48.080Z,18.74
2017-04-27T05:39:13.642Z,18.67
2017-04-27T05:39:39.199Z,18.7
2017-04-27T05:40:04.786Z,18.72
2017-04-27T05:40:30.490Z,18.7
2017-04-27T05:40:56.050Z,18.67
2017-04-27T05:41:21.621Z,18.62
2017-04-27T05:41:47.192Z,18.73
2017-04-27T05:42:12.756Z,18.7
2017-04-27T05:42:38.321Z,18.72
2017-04-27T05:43:03.884Z,18.72
2017-04-27T05:43:29.449Z,18.7
2017-04-27T05:43:55.003Z,18.72
2017-04-27T05:44:20.580Z,18.72
2017-04-27T05:44:46.149Z,18.7
2017-04-27T05:45:11.693Z,18.7
2017-04-27T05:45:37.235Z,18.65
2017-04-27T05:46:02.791Z,18.72
2017-04-27T05:46:28.338Z,18.73
2017-04-27T05:46:53.928Z,18.67
2017-04-27T05:47:19.490Z,18.72
2017-04-27T05:47:45.093Z,18.73
2017-04-27T05:48:10.639Z,18.62
2017-04-27T05:48:36.206Z,18.7
2017-04-27T05:49:01.774Z,18.72
2017-04-27T05:49:27.321Z,18.73
2017-04-27T05:49:52.861Z,18.72
2017-04-27T05:50:18.417Z,18.72
2017-04-27T05:50:43.969Z,18.7
2017-04-27T05:51:09.553Z,18.7
2017-04-27T05:51:35.138Z,18.68
2017-04-27T05:52:00.677Z,18.7
2017-04-27T05:52:26.256Z,18.7
2017-04-27T05:52:51.825Z,18.7
2017-04-27T05:53:17.392Z,18.67
2017-04-27T05:53:42.946Z,18.7
2017-04-27T05:54:08.512Z,18.72
2017-04-27T05:54:34.106Z,18.7
2017-04-27T05:54:59.752Z,18.68
2017-04-27T05:55:25.328Z,18.74
2017-04-27T05:55:50.893Z,18.7
2017-04-27T05:56:16.449Z,18.7
2017-04-27T05:56:42.020Z,18.72
2017-04-27T05:57:07.601Z,18.72
2017-04-27T05:57:33.242Z,18.61
2017-04-27T05:57:58.902Z,18.7
2017-04-27T05:58:24.462Z,18.61
2017-04-27T05:58:50.019Z,18.73
2017-04-27T05:59:15.752Z,18.64
2017-04-27T05:59:41.334Z,18.72
2017-04-27T06:00:06.894Z,18.68
2017-04-27T06:01:10.564Z,18.68
2017-04-27T06:01:36.177Z,18.68
2017-04-27T06:02:01.732Z,18.67
2017-04-27T06:02:27.312Z,18.72
2017-04-27T06:02:52.889Z,18.7
2017-04-27T06:03:18.464Z,18.72
2017-04-27T06:03:44.032Z,18.65
2017-04-27T06:04:09.591Z,18.7
2017-04-27T06:04:35.326Z,18.65
2017-04-27T06:05:00.883Z,18.7
2017-04-27T06:05:26.572Z,18.68
2017-04-27T06:05:52.132Z,18.64
2017-04-27T06:06:17.692Z,18.65
2017-04-27T06:06:43.359Z,18.73
2017-04-27T06:07:09.025Z,18.59
2017-04-27T06:07:34.573Z,18.67
2017-04-27T06:08:00.121Z,18.67
2017-04-27T06:08:25.756Z,18.7
2017-04-27T06:08:51.354Z,18.68
2017-04-27T06:09:16.921Z,18.65
2017-04-27T06:09:42.460Z,18.65
2017-04-27T06:10:08.125Z,18.68
2017-04-27T06:10:33.686Z,18.68
2017-04-27T06:10:59.434Z,18.68
2017-04-27T06:11:25.003Z,18.67
2017-04-27T06:11:50.560Z,18.61
2017-04-27T06:12:16.131Z,18.72
2017-04-27T06:12:41.754Z,18.7
2017-04-27T06:13:07.363Z,18.67
2017-04-27T06:14:05.807Z,18.7
2017-04-27T06:14:31.363Z,18.64
2017-04-27T06:14:56.942Z,18.68
2017-04-27T06:15:22.500Z,18.7
2017-04-27T06:15:48.087Z,18.68
2017-04-27T06:16:13.654Z,18.68
2017-04-27T06:16:39.244Z,18.72
2017-04-27T06:17:04.947Z,18.67
2017-04-27T06:17:30.499Z,18.68
2017-04-27T06:17:56.050Z,18.58
2017-04-27T06:18:21.640Z,18.65
2017-04-27T06:18:47.216Z,18.67
2017-04-27T06:19:12.819Z,18.68
2017-04-27T06:19:38.392Z,18.7
2017-04-27T06:20:03.951Z,18.72
2017-04-27T06:20:29.525Z,18.65
2017-04-27T06:20:55.108Z,18.61
2017-04-27T06:21:20.685Z,18.68
2017-04-27T06:21:46.318Z,18.64
2017-04-27T06:22:11.871Z,18.67
2017-04-27T06:22:37.436Z,18.7
2017-04-27T06:23:03.031Z,18.64
2017-04-27T06:23:28.632Z,18.65
2017-04-27T06:23:54.263Z,18.61
2017-04-27T06:24:19.834Z,18.68
2017-04-27T06:24:45.413Z,18.58
2017-04-27T06:25:11.072Z,18.67
2017-04-27T06:25:36.722Z,18.59
2017-04-27T06:26:02.311Z,18.62
2017-04-27T06:26:27.974Z,18.65
2017-04-27T06:26:53.626Z,18.64
2017-04-27T06:27:19.464Z,18.62
2017-04-27T06:27:45.046Z,18.65
2017-04-27T06:28:10.604Z,18.61
2017-04-27T06:28:36.182Z,18.61
2017-04-27T06:29:01.750Z,18.62
2017-04-27T06:29:27.346Z,18.73
2017-04-27T06:29:52.905Z,18.62
2017-04-27T06:30:18.550Z,18.68
2017-04-27T06:30:44.238Z,18.61
2017-04-27T06:31:09.819Z,18.61
2017-04-27T06:31:35.376Z,18.62
2017-04-27T06:32:00.961Z,18.68
2017-04-27T06:32:26.515Z,18.59
2017-04-27T06:32:52.094Z,18.62
2017-04-27T06:33:17.660Z,18.58
2017-04-27T06:33:43.251Z,18.58
2017-04-27T06:34:08.818Z,18.61
2017-04-27T06:34:34.424Z,18.61
2017-04-27T06:35:00.042Z,18.67
2017-04-27T06:35:25.666Z,18.62
2017-04-27T06:35:51.243Z,18.62
2017-04-27T06:36:16.793Z,18.72
2017-04-27T06:36:42.342Z,18.72
2017-04-27T06:37:07.917Z,18.64
2017-04-27T06:37:33.464Z,18.59
2017-04-27T06:37:59.234Z,18.57
2017-04-27T06:38:24.813Z,18.62
2017-04-27T06:38:50.387Z,18.59
2017-04-27T06:39:15.965Z,18.64
2017-04-27T06:39:41.518Z,18.67
2017-04-27T06:40:07.102Z,18.57
2017-04-27T06:40:32.722Z,18.55
2017-04-27T06:40:58.277Z,18.62
2017-04-27T06:41:24.035Z,18.58
2017-04-27T06:41:49.602Z,18.58
2017-04-27T06:42:15.175Z,18.57
2017-04-27T06:42:40.753Z,18.55
2017-04-27T06:43:06.408Z,18.58
2017-04-27T06:43:32.023Z,18.55
2017-04-27T06:43:57.587Z,18.58
2017-04-27T06:44:23.147Z,18.57
2017-04-27T06:44:48.741Z,18.58
2017-04-27T06:45:14.503Z,18.58
2017-04-27T06:45:40.091Z,18.65
2017-04-27T06:46:05.683Z,18.57
2017-04-27T06:46:31.241Z,18.58
2017-04-27T06:46:56.813Z,18.61
2017-04-27T06:47:22.392Z,18.61
2017-04-27T06:47:47.989Z,18.61
2017-04-27T06:48:13.544Z,18.64
2017-04-27T06:48:39.124Z,18.61
2017-04-27T06:49:04.745Z,18.7
2017-04-27T06:49:30.303Z,18.57
2017-04-27T06:49:55.932Z,18.57
2017-04-27T06:50:21.542Z,18.62
2017-04-27T06:50:47.123Z,18.55
2017-04-27T06:51:12.674Z,18.72
2017-04-27T06:51:38.232Z,18.74
2017-04-27T06:52:03.810Z,18.59
2017-04-27T06:52:29.417Z,18.72
2017-04-27T06:52:55.064Z,18.67
2017-04-27T06:53:20.619Z,18.67
2017-04-27T06:53:46.173Z,18.59
2017-04-27T06:54:11.869Z,18.59
2017-04-27T06:54:37.557Z,18.64
2017-04-27T06:55:03.230Z,18.58
2017-04-27T06:55:28.819Z,18.58
2017-04-27T06:55:54.440Z,18.61
2017-04-27T06:56:19.998Z,18.55
2017-04-27T06:56:45.571Z,18.58
2017-04-27T06:57:11.123Z,18.59
2017-04-27T06:57:36.841Z,18.62
2017-04-27T06:58:02.410Z,18.57
2017-04-27T06:58:27.923Z,18.61
2017-04-27T06:58:53.492Z,18.58
2017-04-27T06:59:19.043Z,18.61
2017-04-27T06:59:44.613Z,18.65
2017-04-27T07:00:10.147Z,18.55
2017-04-27T07:00:35.751Z,18.68
2017-04-27T07:01:01.309Z,18.61
2017-04-27T07:01:26.888Z,18.54
2017-04-27T07:01:52.459Z,18.58
2017-04-27T07:02:18.009Z,18.62
2017-04-27T07:02:43.569Z,18.68
2017-04-27T07:03:09.123Z,18.52
2017-04-27T07:03:34.683Z,18.59
2017-04-27T07:04:00.241Z,18.57
2017-04-27T07:04:25.794Z,18.55
2017-04-27T07:04:51.341Z,18.55
2017-04-27T07:05:16.880Z,18.61
2017-04-27T07:05:42.565Z,18.7
2017-04-27T07:06:08.121Z,18.59
2017-04-27T07:06:33.705Z,18.59
2017-04-27T07:06:59.333Z,18.67
2017-04-27T07:07:24.948Z,18.64
2017-04-27T07:07:50.497Z,18.57
2017-04-27T07:08:16.066Z,18.67
2017-04-27T07:08:41.673Z,18.58
2017-04-27T07:09:07.232Z,18.61
2017-04-27T07:09:32.781Z,18.7
2017-04-27T07:09:58.329Z,18.55
2017-04-27T07:10:23.883Z,18.59
2017-04-27T07:10:49.448Z,18.61
2017-04-27T07:11:15.038Z,18.57
2017-04-27T07:11:40.621Z,18.7
2017-04-27T07:12:06.219Z,18.55
2017-04-27T07:12:31.803Z,18.57
2017-04-27T07:12:57.364Z,18.7
2017-04-27T07:13:22.925Z,18.7
2017-04-27T07:13:48.502Z,18.7
2017-04-27T07:14:14.068Z,18.55
2017-04-27T07:14:39.674Z,18.55
2017-04-27T07:15:05.230Z,18.7
2017-04-27T07:15:30.782Z,18.72
2017-04-27T07:15:56.354Z,18.57
2017-04-27T07:16:21.945Z,18.58
2017-04-27T07:16:47.501Z,18.57
2017-04-27T07:17:13.084Z,18.55
2017-04-27T07:17:38.643Z,18.58
2017-04-27T07:18:04.319Z,18.57
2017-04-27T07:18:29.898Z,18.64
2017-04-27T07:18:55.462Z,18.62
2017-04-27T07:19:21.041Z,18.58
2017-04-27T07:19:46.612Z,18.61
2017-04-27T07:20:12.176Z,18.59
2017-04-27T07:20:37.743Z,18.61
2017-04-27T07:21:03.314Z,18.57
2017-04-27T07:21:28.857Z,18.61
2017-04-27T07:21:54.433Z,18.64
2017-04-27T07:22:20.010Z,18.54
2017-04-27T07:22:45.606Z,18.67
2017-04-27T07:23:11.187Z,18.58
2017-04-27T07:23:36.874Z,18.55
2017-04-27T07:24:02.451Z,18.64
2017-04-27T07:24:28.011Z,18.55
2017-04-27T07:24:53.580Z,18.61
2017-04-27T07:25:19.241Z,18.55
2017-04-27T07:25:45.036Z,18.59
2017-04-27T07:26:10.581Z,18.64
2017-04-27T07:26:36.152Z,18.64
2017-04-27T07:27:01.709Z,18.61
2017-04-27T07:27:27.264Z,18.55
2017-04-27T07:27:52.836Z,18.52
2017-04-27T07:28:18.386Z,18.61
2017-04-27T07:28:43.937Z,18.57
2017-04-27T07:29:09.518Z,18.58
2017-04-27T07:29:35.052Z,18.62
2017-04-27T07:30:00.609Z,18.52
2017-04-27T07:30:26.162Z,18.67
2017-04-27T07:30:51.810Z,18.68
2017-04-27T07:31:17.370Z,18.68
2017-04-27T07:31:42.928Z,18.65
2017-04-27T07:32:08.491Z,18.57
2017-04-27T07:32:34.044Z,18.58
2017-04-27T07:32:59.599Z,18.57
2017-04-27T07:33:25.159Z,18.68
2017-04-27T07:33:50.729Z,18.68
2017-04-27T07:34:16.309Z,18.55
2017-04-27T07:34:41.890Z,18.58
2017-04-27T07:35:07.475Z,18.59
2017-04-27T07:35:33.026Z,18.7
2017-04-27T07:35:58.593Z,18.65
2017-04-27T07:36:24.152Z,18.62
2017-04-27T07:36:49.719Z,18.59
2017-04-27T07:37:15.272Z,18.58
2017-04-27T07:37:40.833Z,18.59
2017-04-27T07:38:06.391Z,18.61
2017-04-27T07:38:31.965Z,18.68
2017-04-27T07:38:57.520Z,18.58
2017-04-27T07:39:23.087Z,18.58
2017-04-27T07:39:48.753Z,18.65
2017-04-27T07:40:14.300Z,18.59
2017-04-27T07:40:39.861Z,18.58
2017-04-27T07:41:05.520Z,18.67
2017-04-27T07:41:31.072Z,18.59
2017-04-27T07:41:56.638Z,18.65
2017-04-27T07:42:22.232Z,18.59
2017-04-27T07:42:47.869Z,18.65
2017-04-27T07:43:13.440Z,18.7
2017-04-27T07:43:39.008Z,18.61
2017-04-27T07:44:04.572Z,18.72
2017-04-27T07:44:30.129Z,18.61
2017-04-27T07:44:55.739Z,18.62
2017-04-27T07:45:21.302Z,18.62
2017-04-27T07:45:46.934Z,18.61
2017-04-27T07:46:12.511Z,18.61
2017-04-27T07:46:38.117Z,18.59
2017-04-27T07:47:03.673Z,18.59
2017-04-27T07:47:29.253Z,18.58
2017-04-27T07:47:54.828Z,18.52
2017-04-27T07:48:20.383Z,18.64
2017-04-27T07:48:45.931Z,18.59
2017-04-27T07:49:11.479Z,18.55
2017-04-27T07:49:37.029Z,18.65
2017-04-27T07:50:02.638Z,18.57
2017-04-27T07:50:28.175Z,18.62
2017-04-27T07:50:53.819Z,18.62
2017-04-27T07:51:19.362Z,18.7
2017-04-27T07:51:44.911Z,18.62
2017-04-27T07:52:10.466Z,18.67
2017-04-27T07:52:36.092Z,18.62
2017-04-27T07:53:01.621Z,18.57
2017-04-27T07:53:27.187Z,18.61
2017-04-27T07:53:52.821Z,18.7
2017-04-27T07:54:18.369Z,18.61
2017-04-27T07:54:43.916Z,18.59
2017-04-27T07:55:09.535Z,18.55
2017-04-27T07:55:35.094Z,18.61
2017-04-27T07:56:00.694Z,18.68
2017-04-27T07:56:26.352Z,18.59
2017-04-27T07:56:51.924Z,18.57
2017-04-27T07:57:17.457Z,18.64
2017-04-27T07:57:43.054Z,18.62
2017-04-27T07:58:08.620Z,18.7
2017-04-27T07:58:34.171Z,18.64
2017-04-27T07:58:59.786Z,18.58
2017-04-27T07:59:25.339Z,18.61
2017-04-27T07:59:50.894Z,18.59
2017-04-27T08:00:16.456Z,18.59
2017-04-27T08:00:42.156Z,18.68
2017-04-27T08:01:07.728Z,18.68
2017-04-27T08:01:33.301Z,18.59
2017-04-27T08:01:58.883Z,18.62
2017-04-27T08:02:24.437Z,18.57
2017-04-27T08:02:50.243Z,18.72
2017-04-27T08:03:15.907Z,18.61
2017-04-27T08:03:41.636Z,18.64
2017-04-27T08:04:07.293Z,18.55
2017-04-27T08:04:32.853Z,18.65
2017-04-27T08:04:58.410Z,18.67
2017-04-27T08:05:23.994Z,18.68
2017-04-27T08:05:49.553Z,18.62
2017-04-27T08:06:15.104Z,18.67
2017-04-27T08:06:40.672Z,18.62
2017-04-27T08:07:06.239Z,18.67
2017-04-27T08:07:31.799Z,18.65
2017-04-27T08:07:57.373Z,18.58
2017-04-27T08:08:22.929Z,18.57
2017-04-27T08:08:48.517Z,18.61
2017-04-27T08:09:14.246Z,18.57
2017-04-27T08:09:39.802Z,18.55
2017-04-27T08:10:05.443Z,18.64
2017-04-27T08:10:31.082Z,18.57
2017-04-27T08:10:56.648Z,18.7
2017-04-27T08:11:22.301Z,18.57
2017-04-27T08:11:47.881Z,18.7
2017-04-27T08:12:13.432Z,18.64
2017-04-27T08:12:38.992Z,18.67
2017-04-27T08:13:04.570Z,18.57
2017-04-27T08:13:30.144Z,18.57
2017-04-27T08:13:55.719Z,18.62
2017-04-27T08:14:21.280Z,18.55
2017-04-27T08:14:46.824Z,18.72
2017-04-27T08:15:12.379Z,18.64
2017-04-27T08:15:38.020Z,18.59
2017-04-27T08:16:03.580Z,18.55
2017-04-27T08:16:29.141Z,18.59
2017-04-27T08:16:54.834Z,18.55
2017-04-27T08:17:20.379Z,18.61
2017-04-27T08:17:45.944Z,18.59
2017-04-27T08:18:11.634Z,18.61
2017-04-27T08:18:37.267Z,18.61
2017-04-27T08:19:02.829Z,18.55
2017-04-27T08:19:28.433Z,18.64
2017-04-27T08:19:54.038Z,18.64
2017-04-27T08:20:19.591Z,18.61
2017-04-27T08:20:45.168Z,18.61
2017-04-27T08:21:10.725Z,18.65
2017-04-27T08:21:36.282Z,18.59
2017-04-27T08:22:01.826Z,18.59
2017-04-27T08:22:27.398Z,18.64
2017-04-27T08:22:52.941Z,18.61
2017-04-27T08:23:18.595Z,18.59
2017-04-27T08:23:44.225Z,18.58
2017-04-27T08:24:09.756Z,18.67
2017-04-27T08:24:35.441Z,18.57
2017-04-27T08:25:01.111Z,18.61
2017-04-27T08:25:26.645Z,18.72
2017-04-27T08:25:52.212Z,18.57
2017-04-27T08:26:17.857Z,18.57
2017-04-27T08:26:43.396Z,18.62
2017-04-27T08:27:08.945Z,18.59
2017-04-27T08:27:34.647Z,18.57
2017-04-27T08:28:00.205Z,18.59
2017-04-27T08:28:25.739Z,18.62
2017-04-27T08:28:51.291Z,18.67
2017-04-27T08:29:16.819Z,18.61
2017-04-27T08:29:42.435Z,18.7
2017-04-27T08:30:08.015Z,18.57
2017-04-27T08:30:33.552Z,18.7
2017-04-27T08:30:59.123Z,18.67
2017-04-27T08:31:24.763Z,18.59
2017-04-27T08:31:50.319Z,18.74
2017-04-27T08:32:15.885Z,18.64
2017-04-27T08:32:41.476Z,18.57
2017-04-27T08:33:07.023Z,18.61
2017-04-27T08:33:32.576Z,18.55
2017-04-27T08:33:58.161Z,18.59
2017-04-27T08:34:56.605Z,18.7
2017-04-27T08:35:22.162Z,18.64